createdAt,value
2018-09-21T00:00:49.480Z,20.70
2018-09-21T00:03:19.829Z,20.60
2018-09-21T00:05:50.157Z,20.60
2018-09-21T00:08:20.733Z,20.50
2018-09-21T00:10:51.289Z,20.50
2018-09-21T00:13:21.628Z,20.50
2018-09-21T00:15:51.953Z,20.50
2018-09-21T00:18:22.323Z,20.40
2018-09-21T00:20:52.629Z,20.40
2018-09-21T00:23:22.980Z,20.40
2018-09-21T00:25:53.292Z,20.40
2018-09-21T00:28:23.648Z,20.40
2018-09-21T00:30:54.077Z,20.30
2018-09-21T00:33:24.628Z,20.30
2018-09-21T00:35:55.175Z,20.30
2018-09-21T00:38:25.513Z,20.30
2018-09-21T00:40:55.840Z,20.20
2018-09-21T00:43:26.229Z,20.20
2018-09-21T00:45:56.549Z,20.20
2018-09-21T00:48:26.890Z,20.20
2018-09-21T00:50:57.475Z,20.20
2018-09-21T00:53:28.090Z,20.10
2018-09-21T00:55:58.661Z,20.10
2018-09-21T00:58:28.969Z,20.10
2018-09-21T01:00:59.325Z,20.00
2018-09-21T01:03:29.881Z,20.00
2018-09-21T01:06:00.205Z,20.00
2018-09-21T01:08:30.525Z,20.00
2018-09-21T01:11:01.098Z,19.90
2018-09-21T01:13:31.396Z,19.90
2018-09-21T01:16:01.737Z,19.90
2018-09-21T01:18:32.073Z,19.90
2018-09-21T01:21:02.402Z,19.90
2018-09-21T01:23:32.721Z,19.90
2018-09-21T01:26:03.078Z,19.80
2018-09-21T01:28:33.852Z,19.80
2018-09-21T01:31:04.218Z,19.80
2018-09-21T01:33:34.520Z,19.80
2018-09-21T01:36:04.873Z,19.80
2018-09-21T01:38:35.192Z,19.80
2018-09-21T01:41:05.744Z,19.70
2018-09-21T01:43:36.062Z,19.70
2018-09-21T01:46:06.517Z,19.70
2018-09-21T01:48:36.829Z,19.70
2018-09-21T01:51:07.407Z,19.60
2018-09-21T01:53:37.720Z,19.70
2018-09-21T01:56:08.076Z,19.60
2018-09-21T01:58:38.377Z,19.60
2018-09-21T02:01:08.962Z,19.60
2018-09-21T02:03:39.509Z,19.50
2018-09-21T02:06:10.152Z,19.50
2018-09-21T02:08:40.509Z,19.50
2018-09-21T02:11:11.314Z,19.50
2018-09-21T02:13:41.657Z,19.50
2018-09-21T02:16:12.237Z,19.50
2018-09-21T02:18:42.552Z,19.50
2018-09-21T02:21:12.897Z,19.50
2018-09-21T02:23:43.206Z,19.40
2018-09-21T02:26:13.785Z,19.40
2018-09-21T02:28:44.106Z,19.40
2018-09-21T02:31:14.471Z,19.40
2018-09-21T02:33:44.780Z,19.30
2018-09-21T02:36:15.361Z,19.30
2018-09-21T02:38:45.681Z,19.30
2018-09-21T02:41:16.458Z,19.30
2018-09-21T02:43:46.965Z,19.30
2018-09-21T02:46:17.379Z,19.30
2018-09-21T02:48:47.736Z,19.20
2018-09-21T02:51:18.230Z,19.20
2018-09-21T02:53:48.532Z,19.20
2018-09-21T02:56:19.871Z,19.20
2018-09-21T02:58:51.111Z,19.10
2018-09-21T03:01:21.415Z,19.10
2018-09-21T03:03:52.131Z,19.10
2018-09-21T03:06:22.464Z,19.10
2018-09-21T03:08:52.768Z,19.10
2018-09-21T03:11:23.089Z,19.00
2018-09-21T03:13:53.389Z,19.00
2018-09-21T03:16:23.961Z,19.00
2018-09-21T03:18:54.245Z,19.00
2018-09-21T03:21:24.812Z,19.00
2018-09-21T03:23:55.112Z,19.00
2018-09-21T03:26:25.460Z,19.00
2018-09-21T03:28:56.597Z,18.90
2018-09-21T03:31:26.971Z,18.90
2018-09-21T03:33:57.270Z,18.90
2018-09-21T03:36:27.846Z,18.90
2018-09-21T03:38:58.396Z,18.90
2018-09-21T03:41:28.956Z,18.90
2018-09-21T03:43:59.289Z,18.80
2018-09-21T03:46:29.864Z,18.80
2018-09-21T03:49:00.449Z,18.80
2018-09-21T03:51:31.026Z,18.80
2018-09-21T03:54:01.354Z,18.80
2018-09-21T03:56:31.689Z,18.80
2018-09-21T03:59:02.224Z,18.80
2018-09-21T04:01:33.005Z,18.80
2018-09-21T04:04:03.589Z,18.80
2018-09-21T04:06:34.157Z,18.80
2018-09-21T04:09:06.909Z,18.80
2018-09-21T04:11:37.496Z,18.70
2018-09-21T04:14:07.813Z,18.70
2018-09-21T04:16:38.323Z,18.70
2018-09-21T04:19:08.625Z,18.70
2018-09-21T04:21:39.036Z,18.70
2018-09-21T04:24:09.581Z,18.70
2018-09-21T04:26:40.187Z,18.70
2018-09-21T04:29:10.514Z,18.70
2018-09-21T04:31:40.877Z,18.70
2018-09-21T04:34:11.196Z,18.70
2018-09-21T04:36:41.768Z,18.70
2018-09-21T04:39:12.969Z,18.80
2018-09-21T04:41:43.536Z,18.70
2018-09-21T04:44:13.849Z,18.70
2018-09-21T04:46:44.185Z,18.70
2018-09-21T04:49:14.520Z,18.70
2018-09-21T04:51:45.021Z,18.70
2018-09-21T04:54:15.584Z,18.70
2018-09-21T04:56:46.157Z,18.70
2018-09-21T04:59:16.466Z,18.70
2018-09-21T05:01:46.792Z,18.70
2018-09-21T05:04:17.123Z,18.70
2018-09-21T05:06:47.417Z,18.70
2018-09-21T05:09:17.989Z,18.70
2018-09-21T05:11:48.288Z,18.70
2018-09-21T05:14:18.907Z,18.70
2018-09-21T05:16:49.193Z,18.70
2018-09-21T05:19:19.763Z,18.70
2018-09-21T05:21:50.554Z,18.70
2018-09-21T05:24:21.124Z,18.70
2018-09-21T05:26:51.445Z,18.70
2018-09-21T05:29:21.804Z,18.70
2018-09-21T05:31:52.133Z,18.70
2018-09-21T05:34:22.514Z,18.80
2018-09-21T05:36:52.957Z,18.70
2018-09-21T05:39:23.276Z,18.70
2018-09-21T05:41:53.833Z,18.80
2018-09-21T05:44:24.154Z,18.80
2018-09-21T05:46:54.457Z,18.80
2018-09-21T05:49:25.036Z,18.80
2018-09-21T05:51:55.632Z,18.80
2018-09-21T05:54:26.104Z,18.80
2018-09-21T05:56:56.449Z,18.90
2018-09-21T05:59:26.782Z,18.90
2018-09-21T06:01:57.383Z,19.00
2018-09-21T06:04:27.967Z,19.00
2018-09-21T06:06:58.312Z,19.10
2018-09-21T06:09:28.882Z,19.20
2018-09-21T06:11:59.180Z,19.40
2018-09-21T06:14:29.755Z,19.50
2018-09-21T06:17:00.309Z,19.70
2018-09-21T06:19:30.942Z,20.00
2018-09-21T06:22:01.384Z,20.30
2018-09-21T06:24:32.081Z,20.60
2018-09-21T06:27:02.627Z,20.90
2018-09-21T06:29:32.952Z,21.20
2018-09-21T06:32:03.514Z,21.50
2018-09-21T06:34:33.842Z,21.80
2018-09-21T06:37:04.149Z,22.10
2018-09-21T06:39:34.496Z,22.40
2018-09-21T06:42:04.824Z,22.70
2018-09-21T06:44:35.592Z,23.00
2018-09-21T06:47:06.145Z,23.20
2018-09-21T06:49:36.463Z,23.40
2018-09-21T06:52:06.856Z,23.70
2018-09-21T06:54:37.184Z,23.90
2018-09-21T06:57:07.715Z,24.10
2018-09-21T06:59:38.036Z,24.30
2018-09-21T07:02:08.365Z,24.50
2018-09-21T07:04:38.936Z,24.60
2018-09-21T07:07:09.477Z,24.70
2018-09-21T07:09:40.054Z,24.80
2018-09-21T07:12:10.373Z,24.80
2018-09-21T07:14:41.147Z,24.90
2018-09-21T07:17:11.436Z,24.90
2018-09-21T07:19:41.753Z,24.90
2018-09-21T07:22:12.313Z,24.90
2018-09-21T07:24:42.645Z,24.90
2018-09-21T07:27:13.188Z,24.90
2018-09-21T07:29:43.520Z,24.90
2018-09-21T07:32:13.868Z,24.90
2018-09-21T07:34:44.230Z,24.80
2018-09-21T07:37:14.521Z,24.80
2018-09-21T07:39:45.096Z,24.80
2018-09-21T07:42:15.601Z,24.80
2018-09-21T07:44:46.022Z,24.70
2018-09-21T07:47:16.321Z,24.70
2018-09-21T07:49:46.640Z,24.70
2018-09-21T07:52:16.968Z,24.60
2018-09-21T07:54:47.408Z,24.60
2018-09-21T07:57:18.075Z,24.60
2018-09-21T07:59:48.397Z,24.60
2018-09-21T08:02:18.723Z,24.60
2018-09-21T08:04:49.017Z,24.60
2018-09-21T08:07:19.386Z,24.50
2018-09-21T08:09:49.872Z,24.50
2018-09-21T08:12:20.464Z,24.50
2018-09-21T08:14:50.765Z,24.50
2018-09-21T08:17:21.084Z,24.50
2018-09-21T08:19:51.388Z,24.60
2018-09-21T08:22:21.704Z,24.60
2018-09-21T08:24:52.234Z,24.60
2018-09-21T08:27:22.765Z,24.70
2018-09-21T08:29:53.068Z,24.70
2018-09-21T08:32:23.400Z,24.70
2018-09-21T08:34:53.700Z,24.80
2018-09-21T08:37:24.383Z,24.80
2018-09-21T08:39:55.020Z,24.80
2018-09-21T08:42:25.601Z,24.90
2018-09-21T08:44:55.909Z,24.90
2018-09-21T08:47:26.280Z,24.90
2018-09-21T08:49:56.692Z,24.90
2018-09-21T08:52:27.037Z,24.90
2018-09-21T08:54:57.371Z,25.00
2018-09-21T08:57:28.202Z,25.00
2018-09-21T08:59:58.518Z,25.00
2018-09-21T09:02:29.117Z,25.00
2018-09-21T09:04:59.513Z,25.10
2018-09-21T09:07:29.861Z,25.10
2018-09-21T09:10:00.430Z,25.20
2018-09-21T09:12:31.012Z,25.20
2018-09-21T09:15:01.574Z,25.20
2018-09-21T09:17:31.924Z,25.30
2018-09-21T09:20:02.270Z,25.40
2018-09-21T09:22:32.656Z,25.40
2018-09-21T09:25:03.019Z,25.50
2018-09-21T09:27:33.801Z,25.50
2018-09-21T09:30:05.085Z,25.60
2018-09-21T09:32:35.853Z,25.60
2018-09-21T09:35:12.557Z,25.70
2018-09-21T09:37:42.889Z,25.70
2018-09-21T09:40:13.458Z,25.80
2018-09-21T09:42:43.836Z,25.90
2018-09-21T09:45:14.452Z,25.90
2018-09-21T09:47:44.896Z,25.90
2018-09-21T09:50:15.207Z,25.90
2018-09-21T09:52:45.537Z,26.00
2018-09-21T09:55:15.856Z,26.10
2018-09-21T09:57:46.212Z,26.00
2018-09-21T10:00:20.633Z,26.10
2018-09-21T10:02:50.973Z,26.10
2018-09-21T10:05:21.301Z,26.10
2018-09-21T10:07:51.637Z,26.10
2018-09-21T10:10:22.033Z,26.20
2018-09-21T10:12:52.532Z,26.20
2018-09-21T10:15:23.108Z,26.30
2018-09-21T10:17:53.455Z,26.40
2018-09-21T10:20:23.771Z,26.40
2018-09-21T10:22:54.133Z,26.50
2018-09-21T10:25:24.747Z,26.50
2018-09-21T10:27:55.196Z,26.60
2018-09-21T10:30:25.652Z,26.60
2018-09-21T10:32:56.006Z,26.70
2018-09-21T10:35:26.456Z,26.70
2018-09-21T10:37:56.873Z,26.80
2018-09-21T10:40:27.266Z,26.90
2018-09-21T10:42:58.009Z,26.90
2018-09-21T10:45:28.510Z,27.00
2018-09-21T10:47:58.856Z,27.10
2018-09-21T10:50:29.194Z,27.20
2018-09-21T10:52:59.781Z,27.30
2018-09-21T10:55:30.349Z,27.30
2018-09-21T10:58:00.941Z,27.40
2018-09-21T11:00:31.578Z,27.40
2018-09-21T11:03:02.313Z,27.40
2018-09-21T11:05:32.878Z,27.40
2018-09-21T11:08:03.297Z,27.40
2018-09-21T11:10:33.608Z,27.30
2018-09-21T11:13:04.037Z,27.30
2018-09-21T11:15:34.505Z,27.30
2018-09-21T11:18:05.156Z,27.30
2018-09-21T11:20:35.703Z,27.20
2018-09-21T11:23:06.223Z,27.20
2018-09-21T11:25:36.797Z,27.20
2018-09-21T11:28:07.394Z,27.10
2018-09-21T11:30:37.692Z,27.10
2018-09-21T11:33:08.054Z,27.10
2018-09-21T11:35:38.880Z,27.00
2018-09-21T11:38:09.297Z,27.00
2018-09-21T11:40:39.632Z,26.90
2018-09-21T11:43:09.976Z,26.90
2018-09-21T11:45:40.532Z,26.90
2018-09-21T11:48:10.881Z,26.80
2018-09-21T11:50:41.428Z,26.70
2018-09-21T11:53:11.780Z,26.70
2018-09-21T11:55:42.332Z,26.70
2018-09-21T11:58:12.934Z,26.60
2018-09-21T12:00:43.516Z,26.60
2018-09-21T12:03:13.849Z,26.60
2018-09-21T12:05:44.173Z,26.50
2018-09-21T12:08:18.868Z,26.50
2018-09-21T12:10:49.198Z,26.40
2018-09-21T12:13:19.538Z,26.40
2018-09-21T12:15:49.893Z,26.40
2018-09-21T12:18:20.446Z,26.40
2018-09-21T12:20:51.009Z,26.30
2018-09-21T12:23:21.618Z,26.30
2018-09-21T12:25:51.941Z,26.30
2018-09-21T12:28:22.529Z,26.30
2018-09-21T12:30:52.849Z,26.20
2018-09-21T12:33:23.472Z,26.20
2018-09-21T12:35:54.067Z,26.20
2018-09-21T12:38:25.256Z,26.20
2018-09-21T12:40:55.817Z,26.20
2018-09-21T12:43:26.421Z,26.20
2018-09-21T12:45:56.783Z,26.20
2018-09-21T12:48:27.134Z,26.20
2018-09-21T12:50:57.499Z,26.10
2018-09-21T12:53:28.009Z,26.10
2018-09-21T12:55:58.329Z,26.10
2018-09-21T12:58:28.736Z,26.10
2018-09-21T13:00:59.216Z,26.10
2018-09-21T13:03:29.784Z,26.10
2018-09-21T13:06:00.138Z,26.10
2018-09-21T13:08:30.456Z,26.10
2018-09-21T13:11:00.797Z,26.00
2018-09-21T13:13:31.341Z,26.00
2018-09-21T13:16:01.701Z,25.90
2018-09-21T13:18:32.053Z,25.90
2018-09-21T13:21:02.661Z,25.90
2018-09-21T13:23:32.981Z,25.90
2018-09-21T13:26:03.584Z,25.90
2018-09-21T13:28:34.094Z,25.90
2018-09-21T13:31:04.847Z,25.90
2018-09-21T13:33:35.429Z,25.90
2018-09-21T13:36:06.000Z,25.80
2018-09-21T13:38:37.992Z,25.80
2018-09-21T13:41:08.427Z,25.80
2018-09-21T13:43:39.032Z,25.80
2018-09-21T13:46:09.362Z,25.80
2018-09-21T13:48:39.949Z,25.70
2018-09-21T13:51:10.528Z,25.60
2018-09-21T13:53:40.849Z,25.50
2018-09-21T13:56:11.573Z,25.30
2018-09-21T13:58:41.861Z,25.10
2018-09-21T14:01:12.210Z,25.00
2018-09-21T14:03:42.528Z,24.90
2018-09-21T14:06:12.862Z,24.70
2018-09-21T14:08:43.190Z,24.60
2018-09-21T14:11:13.529Z,24.50
2018-09-21T14:13:44.103Z,24.30
2018-09-21T14:16:14.445Z,24.20
2018-09-21T14:18:44.996Z,24.00
2018-09-21T14:21:15.623Z,23.80
2018-09-21T14:23:46.116Z,23.60
2018-09-21T14:26:16.476Z,23.40
2018-09-21T14:28:46.796Z,23.10
2018-09-21T14:31:17.211Z,22.90
2018-09-21T14:33:47.676Z,22.60
2018-09-21T14:36:18.040Z,22.40
2018-09-21T14:38:48.379Z,22.20
2018-09-21T14:41:18.715Z,22.00
2018-09-21T14:43:49.085Z,21.80
2018-09-21T14:46:38.224Z,21.70
2018-09-21T14:49:08.757Z,21.50
2018-09-21T14:51:39.072Z,21.40
2018-09-21T14:54:09.389Z,21.20
2018-09-21T14:56:39.960Z,21.10
2018-09-21T14:59:10.277Z,21.00
2018-09-21T15:01:40.853Z,20.90
2018-09-21T15:04:11.154Z,20.80
2018-09-21T15:06:41.737Z,20.70
2018-09-21T15:09:12.343Z,20.50
2018-09-21T15:11:42.737Z,20.50
2018-09-21T15:14:13.083Z,20.40
2018-09-21T15:16:43.397Z,20.30
2018-09-21T15:19:13.693Z,20.20
2018-09-21T15:21:44.024Z,20.20
2018-09-21T15:24:14.332Z,20.10
2018-09-21T15:26:44.900Z,20.10
2018-09-21T15:29:15.199Z,20.00
2018-09-21T15:31:45.553Z,20.00
2018-09-21T15:34:16.113Z,20.00
2018-09-21T15:36:46.808Z,19.90
2018-09-21T15:39:17.118Z,19.90
2018-09-21T15:41:47.460Z,19.90
2018-09-21T15:44:17.760Z,19.80
2018-09-21T15:46:48.096Z,19.80
2018-09-21T15:49:18.432Z,19.80
2018-09-21T15:51:49.049Z,19.70
2018-09-21T15:54:19.377Z,19.70
2018-09-21T15:56:49.696Z,19.60
2018-09-21T15:59:21.400Z,19.60
2018-09-21T16:01:51.728Z,19.50
2018-09-21T16:04:22.045Z,19.50
2018-09-21T16:06:52.380Z,19.50
2018-09-21T16:09:22.925Z,19.50
2018-09-21T16:11:53.268Z,19.40
2018-09-21T16:14:23.596Z,19.30
2018-09-21T16:16:54.116Z,19.40
2018-09-21T16:19:24.408Z,19.30
2018-09-21T16:21:54.744Z,19.30
2018-09-21T16:24:25.383Z,19.30
2018-09-21T16:26:56.090Z,19.20
2018-09-21T16:29:26.417Z,19.20
2018-09-21T16:31:57.006Z,19.20
2018-09-21T16:34:27.576Z,19.10
2018-09-21T16:36:57.913Z,19.10
2018-09-21T16:39:28.494Z,19.10
2018-09-21T16:41:59.094Z,19.00
2018-09-21T16:44:29.464Z,19.00
2018-09-21T16:47:00.786Z,19.00
2018-09-21T16:49:31.352Z,19.00
2018-09-21T16:52:01.670Z,19.00
2018-09-21T16:54:32.010Z,18.90
2018-09-21T16:57:02.577Z,18.90
2018-09-21T16:59:33.145Z,18.90
2018-09-21T17:02:03.725Z,18.80
2018-09-21T17:04:34.181Z,18.80
2018-09-21T17:07:04.813Z,18.70
2018-09-21T17:09:35.457Z,18.70
2018-09-21T17:12:05.888Z,18.60
2018-09-21T17:14:36.217Z,18.60
2018-09-21T17:17:06.536Z,18.60
2018-09-21T17:19:36.861Z,18.50
2018-09-21T17:22:07.453Z,18.50
2018-09-21T17:24:37.788Z,18.50
2018-09-21T17:27:08.108Z,18.50
2018-09-21T17:29:38.449Z,18.50
2018-09-21T17:32:09.040Z,18.50
2018-09-21T17:34:39.857Z,18.50
2018-09-21T17:37:10.807Z,18.50
2018-09-21T17:39:41.285Z,18.50
2018-09-21T17:42:11.585Z,18.50
2018-09-21T17:44:42.834Z,18.50
2018-09-21T17:47:13.131Z,18.50
2018-09-21T17:49:43.456Z,18.50
2018-09-21T17:52:13.766Z,18.50
2018-09-21T17:54:44.344Z,18.50
2018-09-21T17:57:14.906Z,18.50
2018-09-21T17:59:45.492Z,18.50
2018-09-21T18:02:16.061Z,18.60
2018-09-21T18:04:46.652Z,18.60
2018-09-21T18:07:19.832Z,18.60
2018-09-21T18:09:52.801Z,18.60
2018-09-21T18:12:23.108Z,18.60
2018-09-21T18:14:53.680Z,18.60
2018-09-21T18:17:23.992Z,18.60
2018-09-21T18:19:54.564Z,18.60
2018-09-21T18:22:25.127Z,18.70
2018-09-21T18:24:55.685Z,18.70
2018-09-21T18:27:26.238Z,18.60
2018-09-21T18:30:00.320Z,18.60
2018-09-21T18:32:30.656Z,18.60
2018-09-21T18:35:01.228Z,18.60
2018-09-21T18:37:31.557Z,18.60
2018-09-21T18:40:02.301Z,18.60
2018-09-21T18:42:32.580Z,18.60
2018-09-21T18:45:02.918Z,18.60
2018-09-21T18:47:33.208Z,18.60
2018-09-21T18:50:03.524Z,18.60
2018-09-21T18:52:34.073Z,18.60
2018-09-21T18:55:04.437Z,18.70
2018-09-21T18:57:34.749Z,18.70
2018-09-21T19:00:05.928Z,18.60
2018-09-21T19:02:36.733Z,18.60
2018-09-21T19:05:07.329Z,18.60
2018-09-21T19:07:37.647Z,18.60
2018-09-21T19:10:07.978Z,18.60
2018-09-21T19:12:38.590Z,18.60
2018-09-21T19:15:08.912Z,18.60
2018-09-21T19:17:39.240Z,18.50
2018-09-21T19:20:10.537Z,18.50
2018-09-21T19:22:40.848Z,18.50
2018-09-21T19:25:11.409Z,18.50
2018-09-21T19:27:42.037Z,18.50
2018-09-21T19:30:12.588Z,18.50
2018-09-21T19:32:42.924Z,18.50
2018-09-21T19:35:13.226Z,18.40
2018-09-21T19:37:43.548Z,18.40
2018-09-21T19:40:14.111Z,18.40
2018-09-21T19:42:44.503Z,18.40
2018-09-21T19:45:15.007Z,18.40
2018-09-21T19:47:45.469Z,18.30
2018-09-21T19:50:16.013Z,18.30
2018-09-21T19:52:46.604Z,18.30
2018-09-21T19:55:17.273Z,18.30
2018-09-21T19:57:47.688Z,18.30
2018-09-21T20:00:18.241Z,18.20
2018-09-21T20:02:48.569Z,18.20
2018-09-21T20:05:18.896Z,18.20
2018-09-21T20:07:49.222Z,18.20
2018-09-21T20:10:19.777Z,18.20
2018-09-21T20:12:50.104Z,18.20
2018-09-21T20:15:20.648Z,18.10
2018-09-21T20:17:51.400Z,18.10
2018-09-21T20:20:21.788Z,18.10
2018-09-21T20:22:52.113Z,18.00
2018-09-21T20:25:22.507Z,18.00
2018-09-21T20:27:52.965Z,18.00
2018-09-21T20:30:28.617Z,18.00
2018-09-21T20:33:04.280Z,18.00
2018-09-21T20:35:34.604Z,17.90
2018-09-21T20:38:05.181Z,17.90
2018-09-21T20:40:35.492Z,17.90
2018-09-21T20:43:05.817Z,17.90
2018-09-21T20:45:36.105Z,17.90
2018-09-21T20:48:06.450Z,17.90
2018-09-21T20:50:37.035Z,17.90
2018-09-21T20:53:07.378Z,17.90
2018-09-21T20:55:37.692Z,17.80
2018-09-21T20:58:08.037Z,17.80
2018-09-21T21:00:38.390Z,17.80
2018-09-21T21:03:08.733Z,17.80
2018-09-21T21:05:39.297Z,17.70
2018-09-21T21:08:09.884Z,17.70
2018-09-21T21:10:40.402Z,17.70
2018-09-21T21:13:10.984Z,17.70
2018-09-21T21:15:41.491Z,17.70
2018-09-21T21:18:12.074Z,17.70
2018-09-21T21:20:42.373Z,17.60
2018-09-21T21:23:12.958Z,17.60
2018-09-21T21:25:43.284Z,17.60
2018-09-21T21:28:13.621Z,17.60
2018-09-21T21:30:44.172Z,17.50
2018-09-21T21:33:14.786Z,17.50
2018-09-21T21:35:45.332Z,17.50
2018-09-21T21:38:15.676Z,17.50
2018-09-21T21:40:45.989Z,17.50
2018-09-21T21:43:16.313Z,17.40
2018-09-21T21:45:46.636Z,17.40
2018-09-21T21:48:16.964Z,17.40
2018-09-21T21:50:47.529Z,17.40
2018-09-21T21:53:18.116Z,17.40
2018-09-21T21:55:48.424Z,17.40
2018-09-21T21:58:18.754Z,17.40
2018-09-21T22:00:54.300Z,17.40
2018-09-21T22:03:24.872Z,17.40
2018-09-21T22:05:55.426Z,17.40
2018-09-21T22:08:25.796Z,17.40
2018-09-21T22:10:56.139Z,17.40
2018-09-21T22:13:32.074Z,17.40
2018-09-21T22:16:02.389Z,17.40
2018-09-21T22:18:32.965Z,17.40
2018-09-21T22:21:03.301Z,17.40
2018-09-21T22:23:33.682Z,17.40
2018-09-21T22:26:04.261Z,17.40
2018-09-21T22:28:34.872Z,17.40
2018-09-21T22:31:05.801Z,17.40
2018-09-21T22:33:36.176Z,17.40
2018-09-21T22:36:06.782Z,17.40
2018-09-21T22:38:37.414Z,17.40
2018-09-21T22:41:07.732Z,17.40
2018-09-21T22:43:38.313Z,17.40
2018-09-21T22:46:08.900Z,17.40
2018-09-21T22:48:39.521Z,17.40
2018-09-21T22:51:10.070Z,17.40
2018-09-21T22:53:41.294Z,17.40
2018-09-21T22:56:11.685Z,17.30
2018-09-21T22:58:42.034Z,17.30
2018-09-21T23:01:12.332Z,17.30
2018-09-21T23:03:42.931Z,17.30
2018-09-21T23:06:13.493Z,17.20
2018-09-21T23:08:43.843Z,17.20
2018-09-21T23:11:14.159Z,17.20
2018-09-21T23:13:44.746Z,17.20
2018-09-21T23:16:15.053Z,17.10
2018-09-21T23:18:45.400Z,17.10
2018-09-21T23:21:15.974Z,17.10
2018-09-21T23:23:46.544Z,17.00
2018-09-21T23:26:17.112Z,17.00
2018-09-21T23:28:47.680Z,17.00
2018-09-21T23:31:17.999Z,17.00
2018-09-21T23:33:48.565Z,16.90
2018-09-21T23:36:18.884Z,16.90
2018-09-21T23:38:49.469Z,16.80
2018-09-21T23:41:20.028Z,16.80
2018-09-21T23:43:50.358Z,16.80
2018-09-21T23:46:20.916Z,16.80
2018-09-21T23:48:51.273Z,16.70
2018-09-21T23:51:21.836Z,16.70
2018-09-21T23:53:52.200Z,16.70
2018-09-21T23:56:22.529Z,16.60
2018-09-21T23:58:53.120Z,16.60
